sensor_id;sensor_type;location;lat;lon;timestamp;pressure;altitude;pressure_sealevel;temperature;humidity
72157;BME280;60035;52.122;5.406;2022-12-29T00:00:13;100153.91;;;10.42;100.00
72157;BME280;60035;52.122;5.406;2022-12-29T00:02:39;100130.81;;;10.43;100.00
72157;BME280;60035;52.122;5.406;2022-12-29T00:05:06;100133.06;;;10.51;100.00
72157;BME280;60035;52.122;5.406;2022-12-29T00:07:33;100130.34;;;10.56;100.00
72157;BME280;60035;52.122;5.406;2022-12-29T00:09:59;100128.53;;;10.58;99.66
72157;BME280;60035;52.122;5.406;2022-12-29T00:12:26;100121.66;;;10.58;99.41
72157;BME280;60035;52.122;5.406;2022-12-29T00:15:12;100117.47;;;10.57;99.08
72157;BME280;60035;52.122;5.406;2022-12-29T00:17:59;100125.09;;;10.59;98.92
72157;BME280;60035;52.122;5.406;2022-12-29T00:20:26;100110.69;;;10.56;98.77
72157;BME280;60035;52.122;5.406;2022-12-29T00:23:11;100105.56;;;10.56;98.89
72157;BME280;60035;52.122;5.406;2022-12-29T00:25:56;100097.00;;;10.57;98.62
72157;BME280;60035;52.122;5.406;2022-12-29T00:28:41;100098.59;;;10.60;98.24
72157;BME280;60035;52.122;5.406;2022-12-29T00:31:26;100098.59;;;10.60;98.66
72157;BME280;60035;52.122;5.406;2022-12-29T00:34:11;100088.38;;;10.58;98.22
72157;BME280;60035;52.122;5.406;2022-12-29T00:36:56;100088.28;;;10.61;98.12
72157;BME280;60035;52.122;5.406;2022-12-29T00:39:23;100072.84;;;10.63;98.24
72157;BME280;60035;52.122;5.406;2022-12-29T00:42:09;100089.09;;;10.62;97.88
72157;BME280;60035;52.122;5.406;2022-12-29T00:45:04;100075.34;;;10.64;97.86
72157;BME280;60035;52.122;5.406;2022-12-29T00:47:31;100082.13;;;10.65;97.52
72157;BME280;60035;52.122;5.406;2022-12-29T00:49:57;100071.91;;;10.65;97.30
72157;BME280;60035;52.122;5.406;2022-12-29T00:52:24;100065.09;;;10.64;97.33
72157;BME280;60035;52.122;5.406;2022-12-29T00:54:50;100049.66;;;10.66;97.12
72157;BME280;60035;52.122;5.406;2022-12-29T00:57:18;100053.91;;;10.67;96.68
72157;BME280;60035;52.122;5.406;2022-12-29T00:59:44;100044.44;;;10.69;96.82
72157;BME280;60035;52.122;5.406;2022-12-29T01:02:11;100053.09;;;10.66;96.46
72157;BME280;60035;52.122;5.406;2022-12-29T01:04:38;100042.84;;;10.66;96.67
72157;BME280;60035;52.122;5.406;2022-12-29T01:07:04;100044.53;;;10.66;96.60
72157;BME280;60035;52.122;5.406;2022-12-29T01:09:31;100037.91;;;10.62;96.96
72157;BME280;60035;52.122;5.406;2022-12-29T01:12:16;100039.72;;;10.60;97.08
72157;BME280;60035;52.122;5.406;2022-12-29T01:15:03;100032.84;;;10.60;97.12
72157;BME280;60035;52.122;5.406;2022-12-29T01:17:30;100031.25;;;10.58;97.21
72157;BME280;60035;52.122;5.406;2022-12-29T01:19:56;100033.06;;;10.56;97.78
72157;BME280;60035;52.122;5.406;2022-12-29T01:22:23;100026.53;;;10.48;98.17
72157;BME280;60035;52.122;5.406;2022-12-29T01:24:49;100028.50;;;10.42;98.89
72157;BME280;60035;52.122;5.406;2022-12-29T01:27:16;100018.53;;;10.36;99.48
72157;BME280;60035;52.122;5.406;2022-12-29T01:29:43;100015.25;;;10.32;100.00
72157;BME280;60035;52.122;5.406;2022-12-29T01:32:09;100024.84;;;10.27;100.00
72157;BME280;60035;52.122;5.406;2022-12-29T01:34:36;100019.91;;;10.22;100.00
72157;BME280;60035;52.122;5.406;2022-12-29T01:37:02;100009.91;;;10.16;100.00
72157;BME280;60035;52.122;5.406;2022-12-29T01:39:29;100029.63;;;10.14;100.00
72157;BME280;60035;52.122;5.406;2022-12-29T01:41:55;100039.13;;;10.10;100.00
72157;BME280;60035;52.122;5.406;2022-12-29T01:44:56;100017.97;;;10.07;100.00
72157;BME280;60035;52.122;5.406;2022-12-29T01:50:20;100022.31;;;10.05;100.00
72157;BME280;60035;52.122;5.406;2022-12-29T01:55:27;100028.16;;;10.08;100.00
72157;BME280;60035;52.122;5.406;2022-12-29T01:57:58;100028.84;;;10.12;100.00
72157;BME280;60035;52.122;5.406;2022-12-29T02:00:27;100027.94;;;10.13;100.00
72157;BME280;60035;52.122;5.406;2022-12-29T02:02:53;100034.88;;;10.11;100.00
72157;BME280;60035;52.122;5.406;2022-12-29T02:05:27;100038.25;;;10.11;100.00
72157;BME280;60035;52.122;5.406;2022-12-29T02:07:55;100040.00;;;10.11;100.00
72157;BME280;60035;52.122;5.406;2022-12-29T02:10:24;100033.97;;;10.12;100.00
72157;BME280;60035;52.122;5.406;2022-12-29T02:12:52;100037.31;;;10.14;100.00
72157;BME280;60035;52.122;5.406;2022-12-29T02:15:27;100041.47;;;10.16;100.00
72157;BME280;60035;52.122;5.406;2022-12-29T02:18:01;100047.41;;;10.17;100.00
72157;BME280;60035;52.122;5.406;2022-12-29T02:21:08;100039.84;;;10.14;100.00
72157;BME280;60035;52.122;5.406;2022-12-29T02:24:22;100042.41;;;10.14;100.00
72157;BME280;60035;52.122;5.406;2022-12-29T02:30:07;100040.81;;;10.11;100.00
72157;BME280;60035;52.122;5.406;2022-12-29T02:41:49;100036.59;;;10.10;100.00
72157;BME280;60035;52.122;5.406;2022-12-29T02:44:41;100037.53;;;10.08;100.00
72157;BME280;60035;52.122;5.406;2022-12-29T02:49:49;100031.53;;;10.09;100.00
72157;BME280;60035;52.122;5.406;2022-12-29T02:52:25;100028.09;;;10.10;100.00
72157;BME280;60035;52.122;5.406;2022-12-29T02:54:54;100027.94;;;10.13;100.00
72157;BME280;60035;52.122;5.406;2022-12-29T03:02:59;100038.97;;;10.15;100.00
72157;BME280;60035;52.122;5.406;2022-12-29T03:05:45;100025.47;;;10.11;100.00
72157;BME280;60035;52.122;5.406;2022-12-29T03:13:39;100049.56;;;10.06;100.00
72157;BME280;60035;52.122;5.406;2022-12-29T03:16:45;100035.84;;;10.08;100.00
72157;BME280;60035;52.122;5.406;2022-12-29T03:19:18;100030.13;;;10.02;100.00
72157;BME280;60035;52.122;5.406;2022-12-29T03:21:56;100021.81;;;9.96;100.00
72157;BME280;60035;52.122;5.406;2022-12-29T03:24:43;100033.66;;;9.99;100.00
72157;BME280;60035;52.122;5.406;2022-12-29T03:27:19;100029.28;;;10.01;100.00
72157;BME280;60035;52.122;5.406;2022-12-29T03:29:49;100024.16;;;10.01;100.00
72157;BME280;60035;52.122;5.406;2022-12-29T03:32:22;100015.69;;;10.00;100.00
72157;BME280;60035;52.122;5.406;2022-12-29T03:34:53;100009.03;;;9.96;100.00
72157;BME280;60035;52.122;5.406;2022-12-29T03:37:25;100009.91;;;9.95;100.00
72157;BME280;60035;52.122;5.406;2022-12-29T03:39:52;100006.63;;;9.92;100.00
72157;BME280;60035;52.122;5.406;2022-12-29T03:42:21;100021.22;;;9.90;99.84
72157;BME280;60035;52.122;5.406;2022-12-29T03:44:53;100015.41;;;9.86;100.00
72157;BME280;60035;52.122;5.406;2022-12-29T03:47:20;100009.69;;;9.79;100.00
72157;BME280;60035;52.122;5.406;2022-12-29T03:49:47;100010.66;;;9.77;100.00
72157;BME280;60035;52.122;5.406;2022-12-29T03:52:15;100011.53;;;9.76;100.00
72157;BME280;60035;52.122;5.406;2022-12-29T03:54:42;100008.31;;;9.71;100.00
72157;BME280;60035;52.122;5.406;2022-12-29T03:57:10;100014.50;;;9.65;100.00
72157;BME280;60035;52.122;5.406;2022-12-29T03:59:36;100015.41;;;9.64;100.00
72157;BME280;60035;52.122;5.406;2022-12-29T04:02:03;100005.19;;;9.64;100.00
72157;BME280;60035;52.122;5.406;2022-12-29T04:04:30;100009.56;;;9.60;100.00
72157;BME280;60035;52.122;5.406;2022-12-29T04:06:56;100013.06;;;9.58;100.00
72157;BME280;60035;52.122;5.406;2022-12-29T04:09:22;100002.09;;;9.56;100.00
72157;BME280;60035;52.122;5.406;2022-12-29T04:11:49;100000.63;;;9.50;100.00
72157;BME280;60035;52.122;5.406;2022-12-29T04:14:15;100005.59;;;9.53;100.00
72157;BME280;60035;52.122;5.406;2022-12-29T04:16:43;100001.44;;;9.50;100.00
72157;BME280;60035;52.122;5.406;2022-12-29T04:19:10;100010.88;;;9.48;100.00
72157;BME280;60035;52.122;5.406;2022-12-29T04:21:36;100024.56;;;9.47;100.00
72157;BME280;60035;52.122;5.406;2022-12-29T04:24:03;100034.72;;;9.49;100.00
72157;BME280;60035;52.122;5.406;2022-12-29T04:26:33;100025.25;;;9.51;100.00
72157;BME280;60035;52.122;5.406;2022-12-29T04:28:59;100043.75;;;9.58;99.33
72157;BME280;60035;52.122;5.406;2022-12-29T04:31:26;100039.25;;;9.64;98.58
72157;BME280;60035;52.122;5.406;2022-12-29T04:33:52;100033.28;;;9.64;98.29
72157;BME280;60035;52.122;5.406;2022-12-29T04:36:19;100034.84;;;9.68;97.81
72157;BME280;60035;52.122;5.406;2022-12-29T04:38:53;100048.41;;;9.70;96.54
72157;BME280;60035;52.122;5.406;2022-12-29T04:41:19;100038.13;;;9.72;96.23
72157;BME280;60035;52.122;5.406;2022-12-29T04:43:46;100050.91;;;9.72;95.31
72157;BME280;60035;52.122;5.406;2022-12-29T04:46:12;100050.06;;;9.71;95.42
72157;BME280;60035;52.122;5.406;2022-12-29T04:48:39;100060.41;;;9.68;95.11
72157;BME280;60035;52.122;5.406;2022-12-29T04:51:06;100056.22;;;9.65;94.62
72157;BME280;60035;52.122;5.406;2022-12-29T04:53:32;100056.16;;;9.67;94.23
72157;BME280;60035;52.122;5.406;2022-12-29T04:55:59;100056.06;;;9.70;94.17
72157;BME280;60035;52.122;5.406;2022-12-29T04:58:25;100063.03;;;9.66;94.14
72157;BME280;60035;52.122;5.406;2022-12-29T05:00:52;100058.03;;;9.63;94.14
72157;BME280;60035;52.122;5.406;2022-12-29T05:03:18;100060.66;;;9.62;94.04
72157;BME280;60035;52.122;5.406;2022-12-29T05:05:45;100066.47;;;9.65;93.30
72157;BME280;60035;52.122;5.406;2022-12-29T05:08:11;100074.91;;;9.67;93.73
72157;BME280;60035;52.122;5.406;2022-12-29T05:10:39;100067.31;;;9.66;93.43
72157;BME280;60035;52.122;5.406;2022-12-29T05:13:05;100085.13;;;9.67;92.73
72157;BME280;60035;52.122;5.406;2022-12-29T05:15:32;100073.19;;;9.68;92.76
72157;BME280;60035;52.122;5.406;2022-12-29T05:17:59;100082.66;;;9.66;92.38
72157;BME280;60035;52.122;5.406;2022-12-29T05:20:25;100072.59;;;9.61;92.28
72157;BME280;60035;52.122;5.406;2022-12-29T05:22:52;100079.44;;;9.61;92.55
72157;BME280;60035;52.122;5.406;2022-12-29T05:25:18;100082.06;;;9.59;91.76
72157;BME280;60035;52.122;5.406;2022-12-29T05:27:45;100083.88;;;9.56;92.01
72157;BME280;60035;52.122;5.406;2022-12-29T05:30:12;100085.63;;;9.55;92.10
72157;BME280;60035;52.122;5.406;2022-12-29T05:32:38;100092.44;;;9.55;92.50
72157;BME280;60035;52.122;5.406;2022-12-29T05:35:05;100084.94;;;9.50;92.13
72157;BME280;60035;52.122;5.406;2022-12-29T05:37:32;100087.44;;;9.52;92.08
72157;BME280;60035;52.122;5.406;2022-12-29T05:39:59;100083.28;;;9.49;92.13
72157;BME280;60035;52.122;5.406;2022-12-29T05:42:25;100077.22;;;9.52;92.06
72157;BME280;60035;52.122;5.406;2022-12-29T05:44:52;100078.03;;;9.52;91.99
72157;BME280;60035;52.122;5.406;2022-12-29T05:47:20;100069.63;;;9.50;91.49
72157;BME280;60035;52.122;5.406;2022-12-29T05:49:46;100066.16;;;9.51;91.61
72157;BME280;60035;52.122;5.406;2022-12-29T05:52:13;100080.66;;;9.50;91.56
72157;BME280;60035;52.122;5.406;2022-12-29T05:54:39;100088.25;;;9.52;91.47
72157;BME280;60035;52.122;5.406;2022-12-29T05:57:06;100088.88;;;9.59;90.35
72157;BME280;60035;52.122;5.406;2022-12-29T05:59:32;100096.53;;;9.59;90.84
72157;BME280;60035;52.122;5.406;2022-12-29T06:02:02;100101.78;;;9.56;91.20
72157;BME280;60035;52.122;5.406;2022-12-29T06:04:28;100111.25;;;9.52;91.04
72157;BME280;60035;52.122;5.406;2022-12-29T06:06:55;100112.88;;;9.55;90.79
72157;BME280;60035;52.122;5.406;2022-12-29T06:09:21;100117.03;;;9.57;90.15
72157;BME280;60035;52.122;5.406;2022-12-29T06:11:48;100122.94;;;9.59;90.03
72157;BME280;60035;52.122;5.406;2022-12-29T06:14:14;100123.03;;;9.56;90.10
72157;BME280;60035;52.122;5.406;2022-12-29T06:16:41;100118.06;;;9.53;90.11
72157;BME280;60035;52.122;5.406;2022-12-29T06:19:08;100131.97;;;9.46;90.56
72157;BME280;60035;52.122;5.406;2022-12-29T06:21:34;100121.00;;;9.42;90.87
72157;BME280;60035;52.122;5.406;2022-12-29T06:24:01;100127.06;;;9.40;91.10
72157;BME280;60035;52.122;5.406;2022-12-29T06:26:27;100123.78;;;9.36;91.39
72157;BME280;60035;52.122;5.406;2022-12-29T06:28:54;100122.16;;;9.33;91.39
72157;BME280;60035;52.122;5.406;2022-12-29T06:31:20;100118.94;;;9.28;91.84
72157;BME280;60035;52.122;5.406;2022-12-29T06:33:47;100137.88;;;9.23;92.06
72157;BME280;60035;52.122;5.406;2022-12-29T06:36:15;100144.88;;;9.17;92.67
72157;BME280;60035;52.122;5.406;2022-12-29T06:38:42;100145.03;;;9.13;92.81
72157;BME280;60035;52.122;5.406;2022-12-29T06:41:09;100149.53;;;9.06;93.42
72157;BME280;60035;52.122;5.406;2022-12-29T06:43:35;100151.13;;;9.09;93.15
72157;BME280;60035;52.122;5.406;2022-12-29T06:46:05;100145.34;;;9.04;93.57
72157;BME280;60035;52.122;5.406;2022-12-29T06:48:31;100154.66;;;9.05;93.32
72157;BME280;60035;52.122;5.406;2022-12-29T06:50:58;100142.81;;;9.04;93.85
72157;BME280;60035;52.122;5.406;2022-12-29T06:53:24;100142.00;;;9.02;93.36
72157;BME280;60035;52.122;5.406;2022-12-29T06:55:51;100137.63;;;9.05;93.24
72157;BME280;60035;52.122;5.406;2022-12-29T06:58:17;100125.50;;;9.12;91.99
72157;BME280;60035;52.122;5.406;2022-12-29T07:00:44;100135.66;;;9.13;91.35
72157;BME280;60035;52.122;5.406;2022-12-29T07:03:10;100153.31;;;9.20;89.94
72157;BME280;60035;52.122;5.406;2022-12-29T07:05:37;100131.75;;;9.27;89.15
72157;BME280;60035;52.122;5.406;2022-12-29T07:08:04;100160.81;;;9.24;88.19
72157;BME280;60035;52.122;5.406;2022-12-29T07:10:31;100155.75;;;9.23;88.48
72157;BME280;60035;52.122;5.406;2022-12-29T07:12:57;100150.19;;;9.11;89.29
72157;BME280;60035;52.122;5.406;2022-12-29T07:15:24;100144.00;;;8.93;90.97
72157;BME280;60035;52.122;5.406;2022-12-29T07:17:50;100157.28;;;8.78;92.05
72157;BME280;60035;52.122;5.406;2022-12-29T07:20:17;100161.94;;;8.65;93.20
72157;BME280;60035;52.122;5.406;2022-12-29T07:22:51;100160.59;;;8.55;94.04
72157;BME280;60035;52.122;5.406;2022-12-29T07:25:18;100167.63;;;8.46;94.63
72157;BME280;60035;52.122;5.406;2022-12-29T07:27:44;100168.75;;;8.38;94.94
72157;BME280;60035;52.122;5.406;2022-12-29T07:30:11;100179.19;;;8.30;95.83
72157;BME280;60035;52.122;5.406;2022-12-29T07:32:38;100176.69;;;8.27;96.19
72157;BME280;60035;52.122;5.406;2022-12-29T07:35:04;100170.13;;;8.20;96.34
72157;BME280;60035;52.122;5.406;2022-12-29T07:37:31;100163.50;;;8.14;96.68
72157;BME280;60035;52.122;5.406;2022-12-29T07:39:58;100186.50;;;8.12;97.06
72157;BME280;60035;52.122;5.406;2022-12-29T07:42:24;100187.34;;;8.13;97.76
72157;BME280;60035;52.122;5.406;2022-12-29T07:44:51;100190.72;;;8.13;98.16
72157;BME280;60035;52.122;5.406;2022-12-29T07:47:17;100186.25;;;8.20;98.15
72157;BME280;60035;52.122;5.406;2022-12-29T07:49:44;100190.44;;;8.23;98.04
72157;BME280;60035;52.122;5.406;2022-12-29T07:52:10;100184.44;;;8.24;98.15
72157;BME280;60035;52.122;5.406;2022-12-29T07:54:37;100185.25;;;8.26;98.48
72157;BME280;60035;52.122;5.406;2022-12-29T07:57:06;100165.63;;;8.28;98.32
72157;BME280;60035;52.122;5.406;2022-12-29T07:59:32;100184.09;;;8.36;98.24
72157;BME280;60035;52.122;5.406;2022-12-29T08:02:00;100189.03;;;8.41;97.80
72157;BME280;60035;52.122;5.406;2022-12-29T08:04:27;100193.22;;;8.43;97.57
72157;BME280;60035;52.122;5.406;2022-12-29T08:06:53;100192.28;;;8.47;97.39
72157;BME280;60035;52.122;5.406;2022-12-29T08:09:20;100174.22;;;8.54;96.98
72157;BME280;60035;52.122;5.406;2022-12-29T08:11:51;100178.28;;;8.59;96.29
72157;BME280;60035;52.122;5.406;2022-12-29T08:14:17;100169.53;;;8.66;95.77
72157;BME280;60035;52.122;5.406;2022-12-29T08:16:44;100177.88;;;8.72;95.03
72157;BME280;60035;52.122;5.406;2022-12-29T08:19:11;100172.69;;;8.75;94.54
72157;BME280;60035;52.122;5.406;2022-12-29T08:21:38;100168.28;;;8.80;93.63
72157;BME280;60035;52.122;5.406;2022-12-29T08:24:05;100165.56;;;8.84;93.22
72157;BME280;60035;52.122;5.406;2022-12-29T08:26:32;100162.75;;;8.92;91.86
72157;BME280;60035;52.122;5.406;2022-12-29T08:28:59;100160.88;;;8.97;91.58
72157;BME280;60035;52.122;5.406;2022-12-29T08:31:25;100173.53;;;9.00;90.63
72157;BME280;60035;52.122;5.406;2022-12-29T08:33:52;100166.56;;;9.06;90.08
72157;BME280;60035;52.122;5.406;2022-12-29T08:36:18;100173.22;;;9.10;89.59
72157;BME280;60035;52.122;5.406;2022-12-29T08:38:45;100171.53;;;9.10;89.10
72157;BME280;60035;52.122;5.406;2022-12-29T08:41:11;100163.75;;;9.13;88.33
72157;BME280;60035;52.122;5.406;2022-12-29T08:43:38;100181.56;;;9.15;88.51
72157;BME280;60035;52.122;5.406;2022-12-29T08:46:04;100178.88;;;9.20;87.41
72157;BME280;60035;52.122;5.406;2022-12-29T08:48:31;100177.88;;;9.24;87.65
72157;BME280;60035;52.122;5.406;2022-12-29T08:50:57;100188.91;;;9.24;87.55
72157;BME280;60035;52.122;5.406;2022-12-29T08:53:24;100188.09;;;9.24;87.76
72157;BME280;60035;52.122;5.406;2022-12-29T08:55:58;100180.38;;;9.25;87.91
72157;BME280;60035;52.122;5.406;2022-12-29T08:58:31;100179.63;;;9.22;87.89
72157;BME280;60035;52.122;5.406;2022-12-29T09:00:58;100201.13;;;9.16;88.94
72157;BME280;60035;52.122;5.406;2022-12-29T09:03:25;100187.53;;;9.15;88.90
72157;BME280;60035;52.122;5.406;2022-12-29T09:06:12;100199.31;;;9.20;89.52
72157;BME280;60035;52.122;5.406;2022-12-29T09:08:39;100205.22;;;9.20;89.28
72157;BME280;60035;52.122;5.406;2022-12-29T09:11:17;100204.28;;;9.23;88.76
72157;BME280;60035;52.122;5.406;2022-12-29T09:13:45;100208.53;;;9.24;89.38
72157;BME280;60035;52.122;5.406;2022-12-29T09:16:14;100216.13;;;9.25;89.23
72157;BME280;60035;52.122;5.406;2022-12-29T09:18:41;100194.03;;;9.24;89.54
72157;BME280;60035;52.122;5.406;2022-12-29T09:21:09;100211.06;;;9.24;90.00
72157;BME280;60035;52.122;5.406;2022-12-29T09:23:37;100210.22;;;9.23;90.14
72157;BME280;60035;52.122;5.406;2022-12-29T09:26:03;100213.72;;;9.21;90.40
72157;BME280;60035;52.122;5.406;2022-12-29T09:28:33;100220.56;;;9.20;90.75
72157;BME280;60035;52.122;5.406;2022-12-29T09:31:00;100233.38;;;9.19;90.80
72157;BME280;60035;52.122;5.406;2022-12-29T09:33:27;100223.38;;;9.12;91.60
72157;BME280;60035;52.122;5.406;2022-12-29T09:35:57;100236.34;;;9.06;92.21
72157;BME280;60035;52.122;5.406;2022-12-29T09:38:25;100250.13;;;9.00;92.72
72157;BME280;60035;52.122;5.406;2022-12-29T09:41:08;100267.25;;;8.98;93.36
72157;BME280;60035;52.122;5.406;2022-12-29T09:44:05;100267.50;;;8.91;94.89
72157;BME280;60035;52.122;5.406;2022-12-29T09:46:40;100267.78;;;8.81;95.43
72157;BME280;60035;52.122;5.406;2022-12-29T09:49:15;100272.28;;;8.73;96.78
72157;BME280;60035;52.122;5.406;2022-12-29T09:51:46;100279.34;;;8.65;97.65
72157;BME280;60035;52.122;5.406;2022-12-29T09:54:33;100265.00;;;8.61;98.26
72157;BME280;60035;52.122;5.406;2022-12-29T09:57:03;100276.94;;;8.60;99.02
72157;BME280;60035;52.122;5.406;2022-12-29T09:59:40;100284.59;;;8.60;99.56
72157;BME280;60035;52.122;5.406;2022-12-29T10:02:20;100276.06;;;8.61;99.83
72157;BME280;60035;52.122;5.406;2022-12-29T10:04:49;100288.81;;;8.61;99.89
72157;BME280;60035;52.122;5.406;2022-12-29T10:07:36;100296.56;;;8.58;100.00
72157;BME280;60035;52.122;5.406;2022-12-29T10:13:00;100304.91;;;8.63;100.00
72157;BME280;60035;52.122;5.406;2022-12-29T10:18:16;100295.44;;;8.67;100.00
72157;BME280;60035;52.122;5.406;2022-12-29T10:25:54;100313.22;;;8.70;100.00
72157;BME280;60035;52.122;5.406;2022-12-29T10:28:37;100325.91;;;8.73;100.00
72157;BME280;60035;52.122;5.406;2022-12-29T10:31:09;100328.44;;;8.73;100.00
72157;BME280;60035;52.122;5.406;2022-12-29T10:33:41;100334.38;;;8.74;100.00
72157;BME280;60035;52.122;5.406;2022-12-29T10:36:30;100340.41;;;8.71;100.00
72157;BME280;60035;52.122;5.406;2022-12-29T10:39:48;100343.84;;;8.70;100.00
72157;BME280;60035;52.122;5.406;2022-12-29T10:41:54;100345.56;;;8.70;100.00
72157;BME280;60035;52.122;5.406;2022-12-29T10:44:23;100343.88;;;8.69;100.00
72157;BME280;60035;52.122;5.406;2022-12-29T10:46:59;100350.69;;;8.70;100.00
72157;BME280;60035;52.122;5.406;2022-12-29T10:49:28;100376.19;;;8.70;100.00
72157;BME280;60035;52.122;5.406;2022-12-29T10:51:58;100373.53;;;8.73;100.00
72157;BME280;60035;52.122;5.406;2022-12-29T10:54:35;100376.06;;;8.74;100.00
72157;BME280;60035;52.122;5.406;2022-12-29T10:57:20;100370.94;;;8.74;100.00
72157;BME280;60035;52.122;5.406;2022-12-29T10:59:50;100375.22;;;8.74;100.00
72157;BME280;60035;52.122;5.406;2022-12-29T11:02:35;100385.44;;;8.74;100.00
72157;BME280;60035;52.122;5.406;2022-12-29T11:05:35;100400.81;;;8.72;100.00
72157;BME280;60035;52.122;5.406;2022-12-29T11:08:10;100394.03;;;8.71;100.00
72157;BME280;60035;52.122;5.406;2022-12-29T11:10:40;100410.16;;;8.72;100.00
72157;BME280;60035;52.122;5.406;2022-12-29T11:13:24;100419.44;;;8.74;100.00
72157;BME280;60035;52.122;5.406;2022-12-29T11:15:51;100421.13;;;8.75;100.00
72157;BME280;60035;52.122;5.406;2022-12-29T11:18:36;100419.31;;;8.79;100.00
72157;BME280;60035;52.122;5.406;2022-12-29T11:21:06;100420.03;;;8.84;100.00
72157;BME280;60035;52.122;5.406;2022-12-29T11:23:38;100429.16;;;8.91;100.00
72157;BME280;60035;52.122;5.406;2022-12-29T11:26:21;100428.91;;;9.00;100.00
72157;BME280;60035;52.122;5.406;2022-12-29T11:34:08;100435.84;;;9.25;100.00
72157;BME280;60035;52.122;5.406;2022-12-29T11:36:35;100444.31;;;9.26;100.00
72157;BME280;60035;52.122;5.406;2022-12-29T11:39:02;100442.78;;;9.20;100.00
72157;BME280;60035;52.122;5.406;2022-12-29T11:41:35;100438.72;;;9.14;100.00
72157;BME280;60035;52.122;5.406;2022-12-29T11:44:04;100450.78;;;9.09;100.00
72157;BME280;60035;52.122;5.406;2022-12-29T11:46:34;100438.19;;;9.03;100.00
72157;BME280;60035;52.122;5.406;2022-12-29T11:49:04;100447.69;;;8.98;100.00
72157;BME280;60035;52.122;5.406;2022-12-29T11:51:39;100454.44;;;9.00;100.00
72157;BME280;60035;52.122;5.406;2022-12-29T11:54:16;100452.75;;;9.01;99.90
72157;BME280;60035;52.122;5.406;2022-12-29T11:56:46;100456.94;;;9.02;99.29
72157;BME280;60035;52.122;5.406;2022-12-29T11:59:37;100466.34;;;9.02;98.93
72157;BME280;60035;52.122;5.406;2022-12-29T12:02:21;100466.22;;;9.06;98.89
72157;BME280;60035;52.122;5.406;2022-12-29T12:04:56;100461.94;;;9.07;98.23
72157;BME280;60035;52.122;5.406;2022-12-29T12:07:46;100463.78;;;9.02;98.02
72157;BME280;60035;52.122;5.406;2022-12-29T12:10:21;100468.06;;;9.01;97.82
72157;BME280;60035;52.122;5.406;2022-12-29T12:13:14;100480.91;;;8.98;98.23
72157;BME280;60035;52.122;5.406;2022-12-29T12:15:47;100473.44;;;8.90;98.96
72157;BME280;60035;52.122;5.406;2022-12-29T12:18:41;100475.34;;;8.83;100.00
72157;BME280;60035;52.122;5.406;2022-12-29T12:21:15;100471.97;;;8.83;100.00
72157;BME280;60035;52.122;5.406;2022-12-29T12:29:55;100476.59;;;9.00;100.00
72157;BME280;60035;52.122;5.406;2022-12-29T12:35:04;100495.09;;;9.08;100.00
72157;BME280;60035;52.122;5.406;2022-12-29T12:43:43;100500.72;;;9.20;99.58
72157;BME280;60035;52.122;5.406;2022-12-29T12:46:30;100483.41;;;9.29;98.74
72157;BME280;60035;52.122;5.406;2022-12-29T13:00:50;100495.66;;;9.46;95.48
72157;BME280;60035;52.122;5.406;2022-12-29T13:06:46;100507.38;;;9.54;94.49
72157;BME280;60035;52.122;5.406;2022-12-29T13:09:25;100498.81;;;9.55;94.81
72157;BME280;60035;52.122;5.406;2022-12-29T13:20:39;100516.75;;;9.53;94.32
72157;BME280;60035;52.122;5.406;2022-12-29T13:29:04;100522.03;;;9.47;93.57
72157;BME280;60035;52.122;5.406;2022-12-29T13:31:52;100530.66;;;9.44;93.62
72157;BME280;60035;52.122;5.406;2022-12-29T13:34:31;100519.59;;;9.44;93.19
72157;BME280;60035;52.122;5.406;2022-12-29T13:37:04;100521.34;;;9.42;93.48
72157;BME280;60035;52.122;5.406;2022-12-29T13:39:38;100525.69;;;9.40;93.67
72157;BME280;60035;52.122;5.406;2022-12-29T13:42:06;100533.34;;;9.40;93.72
72157;BME280;60035;52.122;5.406;2022-12-29T13:45:03;100534.13;;;9.42;93.59
72157;BME280;60035;52.122;5.406;2022-12-29T13:50:04;100538.41;;;9.41;92.24
72157;BME280;60035;52.122;5.406;2022-12-29T13:52:53;100532.47;;;9.41;92.58
72157;BME280;60035;52.122;5.406;2022-12-29T13:55:29;100521.50;;;9.37;92.90
72157;BME280;60035;52.122;5.406;2022-12-29T14:00:38;100528.31;;;9.37;93.52
72157;BME280;60035;52.122;5.406;2022-12-29T14:05:35;100527.59;;;9.33;93.29
72157;BME280;60035;52.122;5.406;2022-12-29T14:08:04;100537.84;;;9.31;92.96
72157;BME280;60035;52.122;5.406;2022-12-29T14:15:28;100558.63;;;9.19;94.19
72157;BME280;60035;52.122;5.406;2022-12-29T14:18:25;100556.38;;;9.08;94.11
72157;BME280;60035;52.122;5.406;2022-12-29T14:21:04;100566.84;;;8.99;93.87
72157;BME280;60035;52.122;5.406;2022-12-29T14:26:11;100565.59;;;8.82;95.17
72157;BME280;60035;52.122;5.406;2022-12-29T14:28:46;100573.38;;;8.78;95.49
72157;BME280;60035;52.122;5.406;2022-12-29T14:36:39;100576.44;;;8.58;96.26
72157;BME280;60035;52.122;5.406;2022-12-29T14:39:38;100592.00;;;8.48;96.60
72157;BME280;60035;52.122;5.406;2022-12-29T14:44:47;100585.53;;;8.32;97.47
72157;BME280;60035;52.122;5.406;2022-12-29T14:47:38;100579.84;;;8.22;97.80
72157;BME280;60035;52.122;5.406;2022-12-29T14:50:08;100584.34;;;8.12;98.32
72157;BME280;60035;52.122;5.406;2022-12-29T14:55:38;100578.53;;;8.06;99.39
72157;BME280;60035;52.122;5.406;2022-12-29T14:58:06;100587.06;;;8.05;99.87
72157;BME280;60035;52.122;5.406;2022-12-29T15:00:39;100589.66;;;8.01;100.00
72157;BME280;60035;52.122;5.406;2022-12-29T15:03:13;100581.19;;;8.01;100.00
72157;BME280;60035;52.122;5.406;2022-12-29T15:05:46;100593.06;;;8.02;100.00
72157;BME280;60035;52.122;5.406;2022-12-29T15:08:24;100592.19;;;8.03;100.00
72157;BME280;60035;52.122;5.406;2022-12-29T15:11:03;100586.25;;;8.03;100.00
72157;BME280;60035;52.122;5.406;2022-12-29T15:13:40;100586.19;;;8.06;100.00
72157;BME280;60035;52.122;5.406;2022-12-29T15:16:31;100592.91;;;8.08;100.00